| time (UTC) | temp F | wind direction | speed MPH | gust MPH | rain 1hr in | rain 24hr in | rain mn in | humidity % | barometer mb |
| 20260903153033 | 77 | 1 | 0.0 | 0.0 | 0.00 | 0.09 | 0.00 | 88 | 1020.2 |
| 20260903151529 | 76 | 1 | 0.0 | 0.0 | 0.00 | 0.09 | 0.00 | 88 | 1020.3 |
| 20260903150030 | 75 | 1 | 0.0 | 0.0 | 0.00 | 0.09 | 0.00 | 91 | 1020.3 |
| 20260903144526 | 74 | 1 | 0.0 | 0.0 | 0.00 | 0.09 | 0.00 | 92 | 1020.1 |
| 20260903143018 | 72 | 1 | 0.0 | 0.0 | 0.00 | 0.09 | 0.00 | 93 | 1020.2 |
| 20260903141522 | 72 | 1 | 0.0 | 0.0 | 0.00 | 0.09 | 0.00 | 94 | 1020.3 |
| 20260903140015 | 70 | 1 | 0.0 | 0.0 | 0.00 | 0.09 | 0.00 | 95 | 1020.3 |
| 20260903134512 | 70 | 1 | 0.0 | 0.0 | 0.00 | 0.09 | 0.00 | 95 | 1020.5 |
| 20260903133011 | 69 | 1 | 0.0 | 0.0 | 0.00 | 0.09 | 0.00 | 95 | 1020.5 |
| 20260903131509 | 68 | 1 | 0.0 | 0.0 | 0.00 | 0.09 | 0.00 | 94 | 1020.6 |
| 20260903130008 | 68 | 1 | 0.0 | 0.0 | 0.00 | 0.09 | 0.00 | 95 | 1020.7 |
| 20260903124507 | 67 | 1 | 0.0 | 0.0 | 0.00 | 0.09 | 0.00 | 94 | 1020.7 |
| 20260903123008 | 67 | 1 | 0.0 | 0.0 | 0.00 | 0.09 | 0.00 | 94 | 1020.6 |
| 20260903121505 | 66 | 1 | 0.0 | 0.0 | 0.00 | 0.09 | 0.00 | 94 | 1020.6 |
| 20260903120004 | 66 | 1 | 0.0 | 0.0 | 0.00 | 0.09 | 0.00 | 94 | 1020.5 |
| 20260903114503 | 67 | 1 | 0.0 | 0.0 | 0.00 | 0.09 | 0.00 | 93 | 1020.4 |
| 20260903113001 | 67 | 1 | 0.0 | 0.0 | 0.00 | 0.09 | 0.00 | 93 | 1020.1 |
| 20260903111600 | 67 | 1 | 0.0 | 0.0 | 0.00 | 0.09 | 0.00 | 93 | 1019.9 |
| 20260903110105 | 67 | 1 | 0.0 | 0.0 | 0.00 | 0.09 | 0.00 | 93 | 1019.8 |
| 20260903104603 | 67 | 1 | 0.0 | 0.0 | 0.00 | 0.09 | 0.00 | 93 | 1019.8 |
| 20260903103056 | 67 | 1 | 0.0 | 0.0 | 0.00 | 0.09 | 0.00 | 93 | 1019.6 |
| 20260903101555 | 67 | 1 | 0.0 | 0.0 | 0.00 | 0.09 | 0.00 | 93 | 1019.5 |
| 20260903100054 | 68 | 1 | 0.0 | 0.0 | 0.00 | 0.09 | 0.00 | 93 | 1019.6 |
| 20260903094553 | 68 | 1 | 0.0 | 0.0 | 0.00 | 0.09 | 0.00 | 93 | 1019.5 |
| 20260903093059 | 68 | 1 | 0.0 | 0.0 | 0.00 | 0.09 | 0.00 | 93 | 1019.4 |
| 20260903091551 | 68 | 1 | 0.0 | 0.0 | 0.00 | 0.09 | 0.00 | 93 | 1019.5 |
| 20260903090052 | 68 | 1 | 0.0 | 0.0 | 0.00 | 0.09 | 0.00 | 93 | 1019.3 |
| 20260903084548 | 69 | 1 | 0.0 | 0.0 | 0.00 | 0.09 | 0.00 | 93 | 1019.4 |
| 20260903083048 | 69 | 1 | 0.0 | 0.0 | 0.00 | 0.09 | 0.00 | 92 | 1019.1 |
| 20260903081546 | 69 | 1 | 0.0 | 0.0 | 0.00 | 0.09 | 0.00 | 92 | 1019.4 |
| 20260903080045 | 69 | 1 | 0.0 | 0.0 | 0.00 | 0.09 | 0.00 | 92 | 1019.1 |
| 20260903074555 | 69 | 1 | 0.0 | 0.0 | 0.00 | 0.09 | 0.00 | 92 | 1019.5 |
| 20260903073045 | 69 | 1 | 0.0 | 0.0 | 0.00 | 0.09 | 0.00 | 92 | 1019.6 |
| 20260903071542 | 70 | 1 | 0.0 | 0.0 | 0.00 | 0.09 | 0.00 | 92 | 1019.5 |
| 20260903070045 | 70 | 1 | 0.0 | 0.0 | 0.00 | 0.09 | 0.00 | 92 | 1019.3 |
| 20260903064539 | 70 | 1 | 0.0 | 0.0 | 0.00 | 0.09 | 0.00 | 92 | 1019.3 |
| 20260903063038 | 70 | 1 | 0.0 | 0.0 | 0.00 | 0.09 | 0.00 | 92 | 1019.3 |
| 20260903061535 | 70 | 1 | 0.0 | 0.0 | 0.00 | 0.09 | 0.00 | 91 | 1019.4 |
| 20260903060035 | 70 | 1 | 0.0 | 0.0 | 0.00 | 0.09 | 0.00 | 91 | 1019.6 |
| 20260903054536 | 71 | 1 | 0.0 | 0.0 | 0.00 | 0.09 | 0.00 | 91 | 1019.7 |
| 20260903053032 | 71 | 1 | 0.0 | 0.0 | 0.00 | 0.09 | 0.00 | 91 | 1019.8 |
| 20260903051534 | 71 | 1 | 0.0 | 0.0 | 0.00 | 0.09 | 0.00 | 90 | 1019.8 |
| 20260903050033 | 71 | 1 | 0.0 | 0.0 | 0.00 | 0.09 | 0.00 | 90 | 1019.7 |
| 20260903044533 | 71 | 1 | 0.0 | 0.0 | 0.00 | 0.09 | 0.00 | 90 | 1019.7 |
| 20260903043029 | 71 | 1 | 0.0 | 0.0 | 0.00 | 0.09 | 0.00 | 90 | 1019.8 |
| 20260903041526 | 72 | 1 | 0.0 | 0.0 | 0.00 | 0.09 | 0.00 | 90 | 1019.9 |
| 20260903040024 | 72 | 1 | 0.0 | 0.0 | 0.00 | 0.09 | 0.00 | 89 | 1019.9 |
| 20260903034527 | 72 | 1 | 0.0 | 0.0 | 0.00 | 0.09 | 0.09 | 90 | 1020.0 |
| 20260903033032 | 72 | 1 | 0.0 | 0.0 | 0.00 | 0.09 | 0.09 | 89 | 1020.0 |
| 20260903031523 | 73 | 1 | 0.0 | 0.0 | 0.00 | 0.09 | 0.09 | 89 | 1020.1 |
| 20260903030027 | 73 | 1 | 0.0 | 0.0 | 0.00 | 0.09 | 0.09 | 89 | 1020.2 |
| 20260903024521 | 73 | 1 | 0.0 | 0.0 | 0.00 | 0.09 | 0.09 | 89 | 1020.1 |
| 20260903023021 | 73 | 1 | 0.0 | 0.0 | 0.00 | 0.09 | 0.09 | 89 | 1020.0 |
| 20260903021532 | 73 | 1 | 0.0 | 0.0 | 0.00 | 0.09 | 0.09 | 89 | 1020.1 |
| 20260903020020 | 73 | 1 | 0.0 | 0.0 | 0.00 | 0.09 | 0.09 | 90 | 1020.1 |
| 20260903014519 | 73 | 1 | 0.0 | 0.0 | 0.00 | 0.09 | 0.09 | 90 | 1019.9 |
| 20260903013019 | 73 | 1 | 0.0 | 0.0 | 0.00 | 0.09 | 0.09 | 89 | 1019.6 |
| 20260903011518 | 73 | 1 | 0.0 | 2.0 | 0.00 | 0.09 | 0.09 | 89 | 1019.3 |
| 20260903010018 | 73 | 1 | 0.0 | 0.0 | 0.00 | 0.09 | 0.09 | 89 | 1019.2 |
| 20260903004522 | 73 | 1 | 1.0 | 3.0 | 0.00 | 0.09 | 0.09 | 89 | 1019.0 |
| 20260903003017 | 74 | 1 | 1.0 | 3.0 | 0.00 | 0.09 | 0.09 | 89 | 1018.8 |
| 20260903001517 | 74 | 1 | 1.0 | 3.0 | 0.09 | 0.09 | 0.09 | 89 | 1018.6 |
| 20260903000016 | 75 | 1 | 1.0 | 2.0 | 0.09 | 0.09 | 0.09 | 88 | 1018.4 |
| 20260902234516 | 77 | 1 | 1.0 | 5.0 | 0.09 | 0.09 | 0.09 | 87 | 1018.4 |
| 20260902233015 | 79 | 1 | 4.0 | 5.0 | 0.09 | 0.09 | 0.09 | 85 | 1018.4 |
| 20260902231518 | 83 | 1 | 0.0 | 0.0 | 0.00 | 0.00 | 0.00 | 78 | 1018.6 |
| 20260902230013 | 83 | 1 | 0.0 | 0.0 | 0.00 | 0.00 | 0.00 | 77 | 1018.4 |
| 20260902224512 | 83 | 1 | 0.0 | 0.0 | 0.00 | 0.00 | 0.00 | 75 | 1018.4 |
| 20260902223013 | 83 | 1 | 0.0 | 0.0 | 0.00 | 0.00 | 0.00 | 77 | 1018.4 |
| 20260902221517 | 83 | 1 | 0.0 | 0.0 | 0.00 | 0.00 | 0.00 | 75 | 1018.4 |
| 20260902220010 | 83 | 1 | 0.0 | 0.0 | 0.00 | 0.00 | 0.00 | 73 | 1018.5 |
| 20260902214509 | 83 | 1 | 0.0 | 0.0 | 0.00 | 0.00 | 0.00 | 77 | 1018.5 |
| 20260902213009 | 84 | 1 | 0.0 | 0.0 | 0.00 | 0.00 | 0.00 | 76 | 1018.6 |
| 20260902211512 | 84 | 1 | 0.0 | 0.0 | 0.00 | 0.00 | 0.00 | 75 | 1018.6 |
| 20260902210008 | 85 | 1 | 0.0 | 0.0 | 0.00 | 0.00 | 0.00 | 71 | 1018.4 |
| 20260902204506 | 85 | 1 | 0.0 | 0.0 | 0.00 | 0.00 | 0.00 | 72 | 1018.5 |
| 20260902203006 | 86 | 1 | 0.0 | 0.0 | 0.00 | 0.00 | 0.00 | 66 | 1018.6 |
| 20260902201504 | 86 | 1 | 0.0 | 0.0 | 0.00 | 0.00 | 0.00 | 65 | 1018.7 |
| 20260902200008 | 86 | 1 | 0.0 | 0.0 | 0.00 | 0.00 | 0.00 | 63 | 1018.8 |
| 20260902194600 | 86 | 1 | 0.0 | 0.0 | 0.00 | 0.00 | 0.00 | 62 | 1019.0 |
| 20260902193104 | 86 | 1 | 0.0 | 0.0 | 0.00 | 0.00 | 0.00 | 62 | 1019.2 |
| 20260902191601 | 86 | 1 | 0.0 | 0.0 | 0.00 | 0.00 | 0.00 | 60 | 1019.4 |
| 20260902190100 | 86 | 1 | 0.0 | 0.0 | 0.00 | 0.00 | 0.00 | 61 | 1019.5 |
| 20260902184616 | 86 | 1 | 0.0 | 0.0 | 0.00 | 0.00 | 0.00 | 66 | 1019.6 |
| 20260902183102 | 85 | 1 | 0.0 | 0.0 | 0.00 | 0.00 | 0.00 | 68 | 1019.8 |
| 20260902181550 | 85 | 1 | 0.0 | 0.0 | 0.00 | 0.00 | 0.00 | 67 | 1019.8 |
| 20260902180049 | 85 | 1 | 0.0 | 0.0 | 0.00 | 0.00 | 0.00 | 69 | 1020.0 |
| 20260902174546 | 86 | 1 | 0.0 | 0.0 | 0.00 | 0.00 | 0.00 | 70 | 1020.1 |
| 20260902173045 | 85 | 1 | 0.0 | 0.0 | 0.00 | 0.00 | 0.00 | 68 | 1020.4 |
| 20260902171542 | 85 | 1 | 0.0 | 0.0 | 0.00 | 0.00 | 0.00 | 68 | 1020.6 |
| 20260902170037 | 84 | 1 | 0.0 | 0.0 | 0.00 | 0.00 | 0.00 | 70 | 1020.8 |
| 20260902164534 | 83 | 1 | 0.0 | 0.0 | 0.00 | 0.00 | 0.00 | 78 | 1021.1 |
| 20260902163031 | 82 | 1 | 0.0 | 0.0 | 0.00 | 0.00 | 0.00 | 81 | 1021.3 |
| 20260902161528 | 81 | 1 | 0.0 | 0.0 | 0.00 | 0.00 | 0.00 | 82 | 1021.5 |
| 20260902160024 | 80 | 1 | 0.0 | 0.0 | 0.00 | 0.00 | 0.00 | 83 | 1021.5 |
| 20260902154518 | 78 | 1 | 0.0 | 0.0 | 0.00 | 0.00 | 0.00 | 84 | 1021.7 |